createdAt,value
2018-09-28T00:01:02.010Z,15.29
2018-09-28T00:03:30.286Z,15.44
2018-09-28T00:05:58.561Z,15.49
2018-09-28T00:08:26.824Z,15.42
2018-09-28T00:10:55.068Z,15.46
2018-09-28T00:13:29.511Z,15.42
2018-09-28T00:27:27.207Z,15.37
2018-09-28T00:29:55.438Z,15.34
2018-09-28T00:32:23.684Z,15.28
2018-09-28T00:34:52.026Z,15.20
2018-09-28T00:37:20.287Z,14.83
2018-09-28T00:39:48.561Z,14.82
2018-09-28T00:42:16.875Z,14.92
2018-09-28T00:44:45.108Z,14.68
2018-09-28T00:47:13.371Z,14.92
2018-09-28T00:49:41.633Z,14.69
2018-09-28T00:52:09.886Z,14.67
2018-09-28T00:54:38.161Z,14.46
2018-09-28T00:57:06.511Z,14.68
2018-09-28T00:59:34.740Z,14.35
2018-09-28T01:02:03.017Z,14.55
2018-09-28T01:04:31.257Z,14.49
2018-09-28T01:06:59.527Z,14.47
2018-09-28T01:09:27.770Z,14.34
2018-09-28T01:11:56.047Z,14.41
2018-09-28T01:17:39.486Z,14.31
2018-09-28T01:20:27.599Z,14.28
2018-09-28T01:25:48.144Z,14.30
2018-09-28T02:16:50.988Z,13.54
2018-09-28T02:19:32.088Z,13.51
2018-09-28T02:22:00.394Z,13.47
2018-09-28T02:24:28.736Z,13.55
2018-09-28T02:26:56.973Z,13.44
2018-09-28T02:29:25.222Z,13.45
2018-09-28T02:31:53.477Z,13.56
2018-09-28T02:34:21.721Z,13.31
2018-09-28T02:36:49.974Z,13.33
2018-09-28T02:39:18.237Z,13.26
2018-09-28T02:41:46.477Z,13.32
2018-09-28T02:44:14.727Z,13.16
2018-09-28T02:46:42.981Z,13.18
2018-09-28T02:49:11.225Z,13.06
2018-09-28T02:51:39.485Z,13.10
2018-09-28T02:54:07.746Z,13.23
2018-09-28T02:56:35.982Z,13.11
2018-09-28T02:59:04.237Z,13.15
2018-09-28T03:01:32.498Z,13.07
2018-09-28T03:04:00.852Z,13.00
2018-09-28T03:06:29.232Z,13.13
2018-09-28T03:08:57.472Z,13.02
2018-09-28T03:11:25.728Z,13.10
2018-09-28T03:14:13.730Z,13.02
2018-09-28T03:16:41.994Z,13.04
2018-09-28T03:19:10.257Z,12.91
2018-09-28T03:21:50.490Z,13.22
2018-09-28T05:13:02.488Z,12.08
2018-09-28T05:15:30.793Z,12.12
2018-09-28T05:17:59.085Z,12.10
2018-09-28T05:20:27.349Z,11.95
2018-09-28T05:23:05.944Z,12.03
2018-09-28T06:14:17.653Z,12.29
2018-09-28T06:16:45.914Z,12.48
2018-09-28T06:19:14.239Z,12.38
2018-09-28T06:24:35.183Z,12.34
2018-09-28T06:39:04.956Z,12.40
2018-09-28T06:41:33.209Z,12.50
2018-09-28T06:44:01.460Z,12.68
2018-09-28T06:46:29.738Z,12.75
2018-09-28T06:48:57.986Z,12.79
2018-09-28T06:51:26.319Z,12.82
2018-09-28T06:53:54.612Z,12.97
2018-09-28T06:56:22.892Z,12.87
2018-09-28T06:58:51.147Z,12.88
2018-09-28T07:01:19.445Z,12.77
2018-09-28T07:03:47.727Z,12.97
2018-09-28T07:06:16.015Z,12.95
2018-09-28T07:08:44.257Z,13.30
2018-09-28T07:11:12.490Z,13.09
2018-09-28T07:19:25.649Z,13.43
2018-09-28T07:24:46.661Z,13.33
2018-09-28T08:15:49.178Z,13.65
2018-09-28T08:18:18.374Z,14.08
2018-09-28T08:20:47.801Z,13.75
2018-09-28T08:23:18.697Z,13.57
2018-09-28T08:25:46.914Z,13.95
2018-09-28T08:28:15.209Z,14.19
2018-09-28T08:33:26.106Z,13.87
2018-09-28T08:35:54.375Z,14.75
2018-09-28T08:38:22.653Z,14.64
2018-09-28T08:40:50.958Z,14.78
2018-09-28T08:43:19.210Z,13.96
2018-09-28T08:45:47.472Z,14.27
2018-09-28T08:48:15.725Z,15.08
2018-09-28T08:50:43.988Z,14.92
2018-09-28T08:53:12.229Z,15.71
2018-09-28T08:55:40.501Z,14.75
2018-09-28T08:58:08.749Z,15.45
2018-09-28T09:00:36.993Z,16.30
2018-09-28T09:03:05.229Z,15.87
2018-09-28T09:05:33.487Z,16.13
2018-09-28T09:08:01.750Z,16.18
2018-09-28T09:10:30.000Z,14.59
2018-09-28T09:12:58.242Z,14.91
2018-09-28T10:18:30.683Z,17.56
2018-09-28T10:26:44.129Z,17.66
2018-09-28T10:29:12.369Z,17.68
2018-09-28T10:31:40.604Z,17.61
2018-09-28T10:34:08.878Z,18.02
2018-09-28T10:36:37.106Z,17.67
2018-09-28T10:39:06.771Z,18.16
2018-09-28T10:41:35.913Z,17.68
2018-09-28T10:44:04.410Z,18.07
2018-09-28T10:46:32.662Z,17.66
2018-09-28T10:49:00.973Z,18.21
2018-09-28T10:51:29.310Z,18.72
2018-09-28T10:53:57.645Z,18.17
2018-09-28T10:56:25.931Z,19.22
2018-09-28T10:58:54.270Z,18.52
2018-09-28T11:01:22.473Z,17.72
2018-09-28T11:03:50.806Z,19.00
2018-09-28T11:06:18.977Z,18.80
2018-09-28T11:08:47.341Z,18.63
2018-09-28T11:11:15.518Z,18.71
2018-09-28T11:25:13.202Z,18.30
2018-09-28T12:16:13.222Z,18.01
2018-09-28T12:18:41.511Z,16.58
2018-09-28T12:21:21.772Z,16.66
2018-09-28T12:26:42.573Z,17.91
2018-09-28T12:29:10.864Z,18.62
2018-09-28T12:31:39.105Z,16.84
2018-09-28T12:34:07.386Z,16.42
2018-09-28T12:36:35.666Z,16.65
2018-09-28T12:39:05.242Z,18.18
2018-09-28T12:41:33.501Z,18.05
2018-09-28T12:44:01.761Z,18.26
2018-09-28T12:46:30.002Z,18.17
2018-09-28T12:48:58.275Z,19.62
2018-09-28T12:51:26.517Z,19.01
2018-09-28T12:53:54.768Z,17.94
2018-09-28T12:56:23.003Z,17.58
2018-09-28T12:58:51.258Z,17.86
2018-09-28T13:04:15.765Z,18.00
2018-09-28T13:06:44.041Z,18.20
2018-09-28T13:09:12.359Z,16.99
2018-09-28T13:11:40.585Z,18.66
2018-09-28T14:12:14.897Z,17.80
2018-09-28T14:26:14.966Z,18.27
2018-09-28T14:28:43.234Z,18.40
2018-09-28T14:31:11.508Z,18.44
2018-09-28T14:33:39.792Z,17.77
2018-09-28T14:36:08.142Z,17.19
2018-09-28T14:38:36.451Z,16.65
2018-09-28T14:41:04.677Z,17.28
2018-09-28T14:43:32.936Z,17.29
2018-09-28T14:46:01.201Z,16.26
2018-09-28T14:48:29.496Z,17.29
2018-09-28T14:50:57.706Z,17.78
2018-09-28T14:53:26.108Z,17.81
2018-09-28T14:55:54.675Z,17.43
2018-09-28T14:58:23.002Z,17.66
2018-09-28T15:00:51.539Z,17.40
2018-09-28T15:03:20.056Z,17.67
2018-09-28T15:05:48.532Z,17.95
2018-09-28T15:08:16.899Z,17.82
2018-09-28T15:10:45.156Z,17.81
2018-09-28T15:13:13.987Z,17.39
2018-09-28T16:16:07.934Z,14.68
2018-09-28T16:18:36.284Z,14.44
2018-09-28T16:21:04.524Z,14.22
2018-09-28T16:23:36.765Z,14.15
2018-09-28T16:57:54.592Z,13.45
2018-09-28T17:00:22.922Z,13.36
2018-09-28T17:02:51.156Z,13.53
2018-09-28T17:05:19.418Z,13.34
2018-09-28T17:07:47.681Z,13.31
2018-09-28T17:10:15.903Z,13.35
2018-09-28T17:12:45.273Z,13.34
2018-09-28T17:23:52.317Z,13.40
2018-09-28T17:26:20.595Z,13.28
2018-09-28T18:26:52.799Z,13.13
2018-09-28T18:29:27.474Z,12.94
2018-09-28T18:31:55.834Z,12.60
2018-09-28T18:34:24.128Z,13.02
2018-09-28T18:36:52.372Z,12.99
2018-09-28T18:39:21.574Z,12.91
2018-09-28T18:41:49.839Z,12.76
2018-09-28T18:44:18.139Z,12.96
2018-09-28T18:46:46.449Z,12.83
2018-09-28T18:49:14.726Z,12.95
2018-09-28T18:51:43.010Z,12.95
2018-09-28T18:54:11.277Z,12.95
2018-09-28T18:56:39.546Z,12.97
2018-09-28T18:59:08.734Z,12.99
2018-09-28T19:01:37.033Z,12.98
2018-09-28T19:04:05.331Z,12.92
2018-09-28T19:06:33.610Z,12.84
2018-09-28T19:09:01.849Z,12.83
2018-09-28T19:11:30.101Z,12.86
2018-09-28T19:13:58.429Z,12.72
2018-09-28T19:16:26.729Z,12.78
2018-09-28T19:18:55.005Z,12.89
2018-09-28T19:27:08.829Z,12.87
2018-09-28T19:29:37.154Z,12.74
2018-09-28T19:32:05.469Z,12.65
2018-09-28T19:34:33.800Z,12.56
2018-09-28T19:37:02.037Z,12.69
2018-09-28T19:39:30.333Z,12.53
2018-09-28T19:41:58.637Z,12.65
2018-09-28T19:44:26.937Z,12.47
2018-09-28T19:46:55.271Z,12.57
2018-09-28T19:49:23.577Z,12.47
2018-09-28T19:51:51.854Z,12.52
2018-09-28T19:54:20.257Z,12.42
2018-09-28T19:56:48.666Z,12.40
2018-09-28T19:59:16.985Z,12.37
2018-09-28T20:01:45.289Z,12.35
2018-09-28T20:04:13.593Z,12.32
2018-09-28T20:06:41.876Z,12.38
2018-09-28T20:09:11.269Z,12.37
2018-09-28T20:11:39.912Z,12.29
2018-09-28T20:14:08.540Z,12.32
2018-09-28T21:14:12.481Z,11.90
2018-09-28T22:14:13.301Z,12.21
2018-09-28T23:23:23.800Z,11.74
